world map with LUZ marked

LUZ - Airport

This information may not be accurate or current and is not valid for navigation or flight planning. No warranty of fitness for any purpose is made or implied.

flag of Lubelskieflag of Poland

Donate via PayPal

Additional information is available on the NEW Great Circle Mapper

Location
City:  Lublin, Lubelskie, Poland
Near (Alt.):Swidnik
Name:Lublin Airport
ICAO / IATA:EPLB / LUZ

Details
Type:Airport (Aerodrome, Airfield)
Use:Public/Civil
Latitude:51°14'25"N (51.240278)
Longitude:22°42'49"E (22.713611)
Elevation:633 ft (193 m)
Runways:unknown number
Longest:8268 × 148 ft (2520 × 45 m)

Time
Timezone:UTC+1 (DST+4)
Local Time:

Weather
METAR:EPLB  041400Z 29007KT 9999 SCT016 OVC026 02/M01 Q1027

Related Locations
Nearby:
Farthest:CHT: 11408 mi / 18359 km
Waitangi [Tuuta], CIT, NZ

Find:

   beyond  
but within

Other Information
Maps:
Links:
Sources:

  


 


Great Circle Mapper   Great Circle Mapper
Great Circle Mapper FAQ   Great Circle Mapper FAQ
  Karl's Home Page
KLSē   KLSē Home
   GC on Facebook
Airlines of the World   Airlines of the World
Donate via PayPal


Copyright © 2004-2020, Karl L. Swartz. All rights reserved.
All trademarks mentioned herein belong to their respective owners.

Please see credits for attribution and copyright information.

Karl Swartz <karl@kls2.com>
  Powered by FreeBSD
Valid HTML 4.01!
Labeled with ICRA
hCard Microformat
Geo Microformat